sensor_id;sensor_type;location;lat;lon;timestamp;P1;durP1;ratioP1;P2;durP2;ratioP2
15230;SDS011;32569;51.762;8.564;2024-03-29T00:01:44;1.67;;;1.00;;
15230;SDS011;32569;51.762;8.564;2024-03-29T00:04:10;1.07;;;1.07;;
15230;SDS011;32569;51.762;8.564;2024-03-29T00:06:36;1.30;;;1.20;;
15230;SDS011;32569;51.762;8.564;2024-03-29T00:09:02;1.00;;;1.00;;
15230;SDS011;32569;51.762;8.564;2024-03-29T00:11:28;0.83;;;0.83;;
15230;SDS011;32569;51.762;8.564;2024-03-29T00:13:54;1.00;;;1.00;;
15230;SDS011;32569;51.762;8.564;2024-03-29T00:16:21;0.80;;;0.80;;
15230;SDS011;32569;51.762;8.564;2024-03-29T00:18:47;1.43;;;1.37;;
15230;SDS011;32569;51.762;8.564;2024-03-29T00:21:13;1.00;;;1.00;;
15230;SDS011;32569;51.762;8.564;2024-03-29T00:23:39;1.10;;;1.10;;
15230;SDS011;32569;51.762;8.564;2024-03-29T00:26:05;1.20;;;1.20;;
15230;SDS011;32569;51.762;8.564;2024-03-29T00:28:31;1.10;;;1.10;;
15230;SDS011;32569;51.762;8.564;2024-03-29T00:30:57;1.00;;;1.00;;
15230;SDS011;32569;51.762;8.564;2024-03-29T00:33:24;1.07;;;1.07;;
15230;SDS011;32569;51.762;8.564;2024-03-29T00:35:49;1.00;;;1.00;;
15230;SDS011;32569;51.762;8.564;2024-03-29T00:38:15;0.90;;;0.90;;
15230;SDS011;32569;51.762;8.564;2024-03-29T00:40:41;1.00;;;1.00;;
15230;SDS011;32569;51.762;8.564;2024-03-29T00:43:07;0.90;;;0.90;;
15230;SDS011;32569;51.762;8.564;2024-03-29T00:45:33;1.53;;;1.43;;
15230;SDS011;32569;51.762;8.564;2024-03-29T00:47:59;1.10;;;1.10;;
15230;SDS011;32569;51.762;8.564;2024-03-29T00:50:26;0.93;;;0.93;;
15230;SDS011;32569;51.762;8.564;2024-03-29T00:52:51;0.90;;;0.90;;
15230;SDS011;32569;51.762;8.564;2024-03-29T00:55:17;0.97;;;0.97;;
15230;SDS011;32569;51.762;8.564;2024-03-29T00:57:43;1.17;;;1.17;;
15230;SDS011;32569;51.762;8.564;2024-03-29T01:00:09;0.90;;;0.90;;
15230;SDS011;32569;51.762;8.564;2024-03-29T01:02:35;1.60;;;1.20;;
15230;SDS011;32569;51.762;8.564;2024-03-29T01:05:01;1.00;;;1.00;;
15230;SDS011;32569;51.762;8.564;2024-03-29T01:07:29;0.90;;;0.90;;
15230;SDS011;32569;51.762;8.564;2024-03-29T01:09:54;0.90;;;0.90;;
15230;SDS011;32569;51.762;8.564;2024-03-29T01:12:20;0.83;;;0.83;;
15230;SDS011;32569;51.762;8.564;2024-03-29T01:14:46;1.00;;;1.00;;
15230;SDS011;32569;51.762;8.564;2024-03-29T01:17:12;1.10;;;1.10;;
15230;SDS011;32569;51.762;8.564;2024-03-29T01:19:37;0.80;;;0.80;;
15230;SDS011;32569;51.762;8.564;2024-03-29T01:22:03;1.27;;;1.10;;
15230;SDS011;32569;51.762;8.564;2024-03-29T01:24:31;1.20;;;1.10;;
15230;SDS011;32569;51.762;8.564;2024-03-29T01:26:56;0.90;;;0.90;;
15230;SDS011;32569;51.762;8.564;2024-03-29T01:29:22;0.90;;;0.90;;
15230;SDS011;32569;51.762;8.564;2024-03-29T01:31:48;1.10;;;1.10;;
15230;SDS011;32569;51.762;8.564;2024-03-29T01:34:14;1.53;;;1.07;;
15230;SDS011;32569;51.762;8.564;2024-03-29T01:36:40;1.10;;;1.10;;
15230;SDS011;32569;51.762;8.564;2024-03-29T01:39:05;0.80;;;0.80;;
15230;SDS011;32569;51.762;8.564;2024-03-29T01:41:33;0.93;;;0.93;;
15230;SDS011;32569;51.762;8.564;2024-03-29T01:43:59;0.80;;;0.80;;
15230;SDS011;32569;51.762;8.564;2024-03-29T01:46:25;0.90;;;0.90;;
15230;SDS011;32569;51.762;8.564;2024-03-29T01:48:53;1.20;;;1.20;;
15230;SDS011;32569;51.762;8.564;2024-03-29T01:51:20;1.30;;;1.20;;
15230;SDS011;32569;51.762;8.564;2024-03-29T01:53:47;1.00;;;1.00;;
15230;SDS011;32569;51.762;8.564;2024-03-29T01:56:19;1.33;;;1.33;;
15230;SDS011;32569;51.762;8.564;2024-03-29T01:58:48;0.90;;;0.90;;
15230;SDS011;32569;51.762;8.564;2024-03-29T02:01:18;0.80;;;0.80;;
15230;SDS011;32569;51.762;8.564;2024-03-29T02:03:46;1.13;;;1.13;;
15230;SDS011;32569;51.762;8.564;2024-03-29T02:06:13;1.03;;;1.03;;
15230;SDS011;32569;51.762;8.564;2024-03-29T02:08:41;1.10;;;1.10;;
15230;SDS011;32569;51.762;8.564;2024-03-29T02:11:07;1.20;;;1.20;;
15230;SDS011;32569;51.762;8.564;2024-03-29T02:13:34;1.27;;;1.20;;
15230;SDS011;32569;51.762;8.564;2024-03-29T02:16:03;1.00;;;1.00;;
15230;SDS011;32569;51.762;8.564;2024-03-29T02:18:30;0.97;;;0.97;;
15230;SDS011;32569;51.762;8.564;2024-03-29T02:20:57;1.13;;;1.13;;
15230;SDS011;32569;51.762;8.564;2024-03-29T02:23:25;0.93;;;0.93;;
15230;SDS011;32569;51.762;8.564;2024-03-29T02:25:54;3.10;;;1.07;;
15230;SDS011;32569;51.762;8.564;2024-03-29T02:28:21;1.00;;;1.00;;
15230;SDS011;32569;51.762;8.564;2024-03-29T02:30:49;0.83;;;0.83;;
15230;SDS011;32569;51.762;8.564;2024-03-29T02:33:16;1.23;;;1.23;;
15230;SDS011;32569;51.762;8.564;2024-03-29T02:35:43;1.00;;;1.00;;
15230;SDS011;32569;51.762;8.564;2024-03-29T02:38:09;0.90;;;0.90;;
15230;SDS011;32569;51.762;8.564;2024-03-29T02:40:36;1.23;;;1.23;;
15230;SDS011;32569;51.762;8.564;2024-03-29T02:43:04;1.40;;;1.30;;
15230;SDS011;32569;51.762;8.564;2024-03-29T02:45:32;1.00;;;1.00;;
15230;SDS011;32569;51.762;8.564;2024-03-29T02:47:59;0.90;;;0.90;;
15230;SDS011;32569;51.762;8.564;2024-03-29T02:50:26;0.97;;;0.97;;
15230;SDS011;32569;51.762;8.564;2024-03-29T02:52:52;1.27;;;1.27;;
15230;SDS011;32569;51.762;8.564;2024-03-29T02:55:18;1.00;;;1.00;;
15230;SDS011;32569;51.762;8.564;2024-03-29T02:57:44;1.30;;;1.30;;
15230;SDS011;32569;51.762;8.564;2024-03-29T03:00:13;0.90;;;0.90;;
15230;SDS011;32569;51.762;8.564;2024-03-29T03:02:39;1.10;;;1.10;;
15230;SDS011;32569;51.762;8.564;2024-03-29T03:05:07;1.17;;;1.17;;
15230;SDS011;32569;51.762;8.564;2024-03-29T03:07:33;0.90;;;0.90;;
15230;SDS011;32569;51.762;8.564;2024-03-29T03:10:18;1.20;;;1.20;;
15230;SDS011;32569;51.762;8.564;2024-03-29T03:13:03;1.10;;;1.10;;
15230;SDS011;32569;51.762;8.564;2024-03-29T03:15:31;0.90;;;0.90;;
15230;SDS011;32569;51.762;8.564;2024-03-29T03:17:58;0.90;;;0.90;;
15230;SDS011;32569;51.762;8.564;2024-03-29T03:20:23;1.10;;;1.10;;
15230;SDS011;32569;51.762;8.564;2024-03-29T03:22:53;1.10;;;1.10;;
15230;SDS011;32569;51.762;8.564;2024-03-29T03:25:18;1.00;;;1.00;;
15230;SDS011;32569;51.762;8.564;2024-03-29T03:27:46;1.17;;;1.07;;
15230;SDS011;32569;51.762;8.564;2024-03-29T03:30:12;1.20;;;1.10;;
15230;SDS011;32569;51.762;8.564;2024-03-29T03:32:40;1.30;;;1.20;;
15230;SDS011;32569;51.762;8.564;2024-03-29T03:35:06;0.90;;;0.90;;
15230;SDS011;32569;51.762;8.564;2024-03-29T03:37:33;0.90;;;0.90;;
15230;SDS011;32569;51.762;8.564;2024-03-29T03:39:58;0.90;;;0.90;;
15230;SDS011;32569;51.762;8.564;2024-03-29T03:42:25;1.07;;;1.07;;
15230;SDS011;32569;51.762;8.564;2024-03-29T03:44:51;1.90;;;1.10;;
15230;SDS011;32569;51.762;8.564;2024-03-29T03:47:17;1.00;;;1.00;;
15230;SDS011;32569;51.762;8.564;2024-03-29T03:49:44;1.67;;;1.10;;
15230;SDS011;32569;51.762;8.564;2024-03-29T03:52:11;1.00;;;1.00;;
15230;SDS011;32569;51.762;8.564;2024-03-29T03:54:37;0.90;;;0.90;;
15230;SDS011;32569;51.762;8.564;2024-03-29T03:57:05;0.90;;;0.90;;
15230;SDS011;32569;51.762;8.564;2024-03-29T03:59:31;1.00;;;1.00;;
15230;SDS011;32569;51.762;8.564;2024-03-29T04:01:58;1.00;;;1.00;;
15230;SDS011;32569;51.762;8.564;2024-03-29T04:04:24;0.90;;;0.90;;
15230;SDS011;32569;51.762;8.564;2024-03-29T04:06:52;0.90;;;0.90;;
15230;SDS011;32569;51.762;8.564;2024-03-29T04:09:17;1.80;;;1.03;;
15230;SDS011;32569;51.762;8.564;2024-03-29T04:11:44;0.93;;;0.93;;
15230;SDS011;32569;51.762;8.564;2024-03-29T04:14:10;0.90;;;0.90;;
15230;SDS011;32569;51.762;8.564;2024-03-29T04:16:36;1.03;;;1.00;;
15230;SDS011;32569;51.762;8.564;2024-03-29T04:19:02;1.10;;;1.10;;
15230;SDS011;32569;51.762;8.564;2024-03-29T04:21:29;0.93;;;0.93;;
15230;SDS011;32569;51.762;8.564;2024-03-29T04:23:58;1.03;;;1.03;;
15230;SDS011;32569;51.762;8.564;2024-03-29T04:26:25;0.90;;;0.90;;
15230;SDS011;32569;51.762;8.564;2024-03-29T04:28:51;1.00;;;1.00;;
15230;SDS011;32569;51.762;8.564;2024-03-29T04:31:17;0.93;;;0.93;;
15230;SDS011;32569;51.762;8.564;2024-03-29T04:33:43;1.10;;;1.10;;
15230;SDS011;32569;51.762;8.564;2024-03-29T04:36:10;1.00;;;1.00;;
15230;SDS011;32569;51.762;8.564;2024-03-29T04:38:38;0.90;;;0.90;;
15230;SDS011;32569;51.762;8.564;2024-03-29T04:41:07;1.10;;;1.10;;
15230;SDS011;32569;51.762;8.564;2024-03-29T04:43:34;1.00;;;1.00;;
15230;SDS011;32569;51.762;8.564;2024-03-29T04:46:01;0.90;;;0.90;;
15230;SDS011;32569;51.762;8.564;2024-03-29T04:48:29;0.90;;;0.90;;
15230;SDS011;32569;51.762;8.564;2024-03-29T04:50:56;0.80;;;0.80;;
15230;SDS011;32569;51.762;8.564;2024-03-29T04:53:22;0.80;;;0.80;;
15230;SDS011;32569;51.762;8.564;2024-03-29T04:55:52;1.00;;;1.00;;
15230;SDS011;32569;51.762;8.564;2024-03-29T04:58:21;1.00;;;1.00;;
15230;SDS011;32569;51.762;8.564;2024-03-29T05:00:48;0.90;;;0.90;;
15230;SDS011;32569;51.762;8.564;2024-03-29T05:03:16;0.87;;;0.87;;
15230;SDS011;32569;51.762;8.564;2024-03-29T05:05:43;1.10;;;1.10;;
15230;SDS011;32569;51.762;8.564;2024-03-29T05:08:10;0.90;;;0.90;;
15230;SDS011;32569;51.762;8.564;2024-03-29T05:10:37;1.03;;;1.03;;
15230;SDS011;32569;51.762;8.564;2024-03-29T05:13:05;0.80;;;0.80;;
15230;SDS011;32569;51.762;8.564;2024-03-29T05:15:33;0.87;;;0.87;;
15230;SDS011;32569;51.762;8.564;2024-03-29T05:17:59;0.80;;;0.80;;
15230;SDS011;32569;51.762;8.564;2024-03-29T05:20:26;0.90;;;0.90;;
15230;SDS011;32569;51.762;8.564;2024-03-29T05:22:53;1.00;;;1.00;;
15230;SDS011;32569;51.762;8.564;2024-03-29T05:25:19;0.80;;;0.80;;
15230;SDS011;32569;51.762;8.564;2024-03-29T05:27:47;0.77;;;0.77;;
15230;SDS011;32569;51.762;8.564;2024-03-29T05:30:14;0.83;;;0.83;;
15230;SDS011;32569;51.762;8.564;2024-03-29T05:32:42;0.97;;;0.97;;
15230;SDS011;32569;51.762;8.564;2024-03-29T05:35:10;1.00;;;1.00;;
15230;SDS011;32569;51.762;8.564;2024-03-29T05:37:36;0.80;;;0.80;;
15230;SDS011;32569;51.762;8.564;2024-03-29T05:40:03;0.80;;;0.80;;
15230;SDS011;32569;51.762;8.564;2024-03-29T05:42:32;1.00;;;1.00;;
15230;SDS011;32569;51.762;8.564;2024-03-29T05:45:01;1.00;;;1.00;;
15230;SDS011;32569;51.762;8.564;2024-03-29T05:47:28;1.00;;;1.00;;
15230;SDS011;32569;51.762;8.564;2024-03-29T05:49:56;1.00;;;1.00;;
15230;SDS011;32569;51.762;8.564;2024-03-29T05:52:22;0.80;;;0.80;;
15230;SDS011;32569;51.762;8.564;2024-03-29T05:54:49;1.00;;;1.00;;
15230;SDS011;32569;51.762;8.564;2024-03-29T05:57:16;0.90;;;0.90;;
15230;SDS011;32569;51.762;8.564;2024-03-29T05:59:42;0.80;;;0.80;;
15230;SDS011;32569;51.762;8.564;2024-03-29T06:02:09;0.80;;;0.80;;
15230;SDS011;32569;51.762;8.564;2024-03-29T06:04:35;1.10;;;1.10;;
15230;SDS011;32569;51.762;8.564;2024-03-29T06:07:04;0.93;;;0.93;;
15230;SDS011;32569;51.762;8.564;2024-03-29T06:09:33;0.90;;;0.90;;
15230;SDS011;32569;51.762;8.564;2024-03-29T06:12:00;0.90;;;0.90;;
15230;SDS011;32569;51.762;8.564;2024-03-29T06:14:27;0.97;;;0.97;;
15230;SDS011;32569;51.762;8.564;2024-03-29T06:17:11;1.00;;;1.00;;
15230;SDS011;32569;51.762;8.564;2024-03-29T06:19:49;0.90;;;0.90;;
15230;SDS011;32569;51.762;8.564;2024-03-29T06:22:18;1.20;;;1.17;;
15230;SDS011;32569;51.762;8.564;2024-03-29T06:24:44;1.00;;;1.00;;
15230;SDS011;32569;51.762;8.564;2024-03-29T06:27:11;0.80;;;0.80;;
15230;SDS011;32569;51.762;8.564;2024-03-29T06:29:41;0.97;;;0.97;;
15230;SDS011;32569;51.762;8.564;2024-03-29T06:32:08;1.00;;;1.00;;
15230;SDS011;32569;51.762;8.564;2024-03-29T06:34:34;0.90;;;0.90;;
15230;SDS011;32569;51.762;8.564;2024-03-29T06:37:01;0.70;;;0.70;;
15230;SDS011;32569;51.762;8.564;2024-03-29T06:39:29;1.00;;;1.00;;
15230;SDS011;32569;51.762;8.564;2024-03-29T06:41:56;1.03;;;1.00;;
15230;SDS011;32569;51.762;8.564;2024-03-29T06:44:23;1.13;;;1.10;;
15230;SDS011;32569;51.762;8.564;2024-03-29T06:46:50;0.90;;;0.90;;
15230;SDS011;32569;51.762;8.564;2024-03-29T06:49:17;1.60;;;1.10;;
15230;SDS011;32569;51.762;8.564;2024-03-29T06:51:43;0.80;;;0.80;;
15230;SDS011;32569;51.762;8.564;2024-03-29T06:54:10;0.97;;;0.97;;
15230;SDS011;32569;51.762;8.564;2024-03-29T06:56:38;1.10;;;1.10;;
15230;SDS011;32569;51.762;8.564;2024-03-29T06:59:05;0.93;;;0.93;;
15230;SDS011;32569;51.762;8.564;2024-03-29T07:01:33;1.17;;;1.17;;
15230;SDS011;32569;51.762;8.564;2024-03-29T07:04:01;0.90;;;0.90;;
15230;SDS011;32569;51.762;8.564;2024-03-29T07:06:28;0.93;;;0.90;;
15230;SDS011;32569;51.762;8.564;2024-03-29T07:08:54;0.97;;;0.97;;
15230;SDS011;32569;51.762;8.564;2024-03-29T07:11:21;0.90;;;0.90;;
15230;SDS011;32569;51.762;8.564;2024-03-29T07:13:50;0.93;;;0.93;;
15230;SDS011;32569;51.762;8.564;2024-03-29T07:16:17;1.00;;;1.00;;
15230;SDS011;32569;51.762;8.564;2024-03-29T07:18:44;1.00;;;1.00;;
15230;SDS011;32569;51.762;8.564;2024-03-29T07:21:11;1.00;;;1.00;;
15230;SDS011;32569;51.762;8.564;2024-03-29T07:23:37;0.90;;;0.90;;
15230;SDS011;32569;51.762;8.564;2024-03-29T07:26:04;0.83;;;0.83;;
15230;SDS011;32569;51.762;8.564;2024-03-29T07:28:31;0.90;;;0.90;;
15230;SDS011;32569;51.762;8.564;2024-03-29T07:31:04;1.00;;;1.00;;
15230;SDS011;32569;51.762;8.564;2024-03-29T07:33:32;1.00;;;1.00;;
15230;SDS011;32569;51.762;8.564;2024-03-29T07:35:58;1.07;;;1.07;;
15230;SDS011;32569;51.762;8.564;2024-03-29T07:38:25;1.00;;;1.00;;
15230;SDS011;32569;51.762;8.564;2024-03-29T07:40:52;0.93;;;0.93;;
15230;SDS011;32569;51.762;8.564;2024-03-29T07:43:20;0.80;;;0.80;;
15230;SDS011;32569;51.762;8.564;2024-03-29T07:45:47;0.90;;;0.90;;
15230;SDS011;32569;51.762;8.564;2024-03-29T07:48:16;1.00;;;1.00;;
15230;SDS011;32569;51.762;8.564;2024-03-29T07:50:44;1.07;;;1.07;;
15230;SDS011;32569;51.762;8.564;2024-03-29T07:53:12;0.80;;;0.80;;
15230;SDS011;32569;51.762;8.564;2024-03-29T07:55:39;1.00;;;1.00;;
15230;SDS011;32569;51.762;8.564;2024-03-29T07:58:06;0.90;;;0.90;;
15230;SDS011;32569;51.762;8.564;2024-03-29T08:00:38;1.10;;;1.10;;
15230;SDS011;32569;51.762;8.564;2024-03-29T08:03:06;0.90;;;0.90;;
15230;SDS011;32569;51.762;8.564;2024-03-29T08:05:34;0.80;;;0.80;;
15230;SDS011;32569;51.762;8.564;2024-03-29T08:08:01;0.80;;;0.80;;
15230;SDS011;32569;51.762;8.564;2024-03-29T08:10:32;0.90;;;0.90;;
15230;SDS011;32569;51.762;8.564;2024-03-29T08:12:59;0.83;;;0.83;;
15230;SDS011;32569;51.762;8.564;2024-03-29T08:15:26;1.00;;;1.00;;
15230;SDS011;32569;51.762;8.564;2024-03-29T08:17:53;0.70;;;0.70;;
15230;SDS011;32569;51.762;8.564;2024-03-29T08:20:20;0.80;;;0.80;;
15230;SDS011;32569;51.762;8.564;2024-03-29T08:22:50;0.90;;;0.90;;
15230;SDS011;32569;51.762;8.564;2024-03-29T08:25:18;0.93;;;0.93;;
15230;SDS011;32569;51.762;8.564;2024-03-29T08:27:45;0.80;;;0.80;;
15230;SDS011;32569;51.762;8.564;2024-03-29T08:30:12;0.90;;;0.90;;
15230;SDS011;32569;51.762;8.564;2024-03-29T08:32:39;0.80;;;0.80;;
15230;SDS011;32569;51.762;8.564;2024-03-29T08:35:06;1.07;;;1.07;;
15230;SDS011;32569;51.762;8.564;2024-03-29T08:37:33;0.90;;;0.90;;
15230;SDS011;32569;51.762;8.564;2024-03-29T08:40:01;0.90;;;0.90;;
15230;SDS011;32569;51.762;8.564;2024-03-29T08:42:28;0.80;;;0.80;;
15230;SDS011;32569;51.762;8.564;2024-03-29T08:44:58;0.90;;;0.90;;
15230;SDS011;32569;51.762;8.564;2024-03-29T08:47:27;0.70;;;0.70;;
15230;SDS011;32569;51.762;8.564;2024-03-29T08:49:54;0.70;;;0.70;;
15230;SDS011;32569;51.762;8.564;2024-03-29T08:52:21;0.70;;;0.70;;
15230;SDS011;32569;51.762;8.564;2024-03-29T08:54:47;0.80;;;0.80;;
15230;SDS011;32569;51.762;8.564;2024-03-29T08:57:15;0.90;;;0.90;;
15230;SDS011;32569;51.762;8.564;2024-03-29T08:59:42;0.60;;;0.60;;
15230;SDS011;32569;51.762;8.564;2024-03-29T09:02:09;0.70;;;0.70;;
15230;SDS011;32569;51.762;8.564;2024-03-29T09:04:35;0.70;;;0.70;;
15230;SDS011;32569;51.762;8.564;2024-03-29T09:07:02;0.60;;;0.60;;
15230;SDS011;32569;51.762;8.564;2024-03-29T09:09:31;0.60;;;0.60;;
15230;SDS011;32569;51.762;8.564;2024-03-29T09:11:58;0.70;;;0.70;;
15230;SDS011;32569;51.762;8.564;2024-03-29T09:14:26;0.70;;;0.70;;
15230;SDS011;32569;51.762;8.564;2024-03-29T09:16:54;0.87;;;0.87;;
15230;SDS011;32569;51.762;8.564;2024-03-29T09:19:20;0.80;;;0.80;;
15230;SDS011;32569;51.762;8.564;2024-03-29T09:21:49;0.80;;;0.80;;
15230;SDS011;32569;51.762;8.564;2024-03-29T09:24:15;0.70;;;0.70;;
15230;SDS011;32569;51.762;8.564;2024-03-29T09:26:42;0.70;;;0.70;;
15230;SDS011;32569;51.762;8.564;2024-03-29T09:29:09;0.70;;;0.70;;
15230;SDS011;32569;51.762;8.564;2024-03-29T09:31:39;0.73;;;0.73;;
15230;SDS011;32569;51.762;8.564;2024-03-29T09:34:06;1.03;;;0.73;;
15230;SDS011;32569;51.762;8.564;2024-03-29T09:36:34;0.80;;;0.80;;
15230;SDS011;32569;51.762;8.564;2024-03-29T09:39:01;0.63;;;0.63;;
15230;SDS011;32569;51.762;8.564;2024-03-29T09:41:32;0.70;;;0.70;;
15230;SDS011;32569;51.762;8.564;2024-03-29T09:44:02;0.60;;;0.60;;
15230;SDS011;32569;51.762;8.564;2024-03-29T09:46:32;0.70;;;0.70;;
15230;SDS011;32569;51.762;8.564;2024-03-29T09:49:01;0.77;;;0.77;;
15230;SDS011;32569;51.762;8.564;2024-03-29T09:51:29;0.70;;;0.70;;
15230;SDS011;32569;51.762;8.564;2024-03-29T09:53:57;0.60;;;0.60;;
15230;SDS011;32569;51.762;8.564;2024-03-29T09:56:26;0.50;;;0.50;;
15230;SDS011;32569;51.762;8.564;2024-03-29T09:58:55;0.63;;;0.63;;
15230;SDS011;32569;51.762;8.564;2024-03-29T10:01:22;0.60;;;0.60;;
15230;SDS011;32569;51.762;8.564;2024-03-29T10:03:49;0.40;;;0.40;;
15230;SDS011;32569;51.762;8.564;2024-03-29T10:06:29;0.50;;;0.50;;
15230;SDS011;32569;51.762;8.564;2024-03-29T10:08:59;0.73;;;0.73;;
15230;SDS011;32569;51.762;8.564;2024-03-29T10:11:26;0.57;;;0.57;;
15230;SDS011;32569;51.762;8.564;2024-03-29T10:13:53;0.70;;;0.70;;
15230;SDS011;32569;51.762;8.564;2024-03-29T10:16:20;0.43;;;0.43;;
15230;SDS011;32569;51.762;8.564;2024-03-29T10:18:49;0.50;;;0.50;;
15230;SDS011;32569;51.762;8.564;2024-03-29T10:21:16;0.50;;;0.50;;
15230;SDS011;32569;51.762;8.564;2024-03-29T10:23:44;0.77;;;0.77;;
15230;SDS011;32569;51.762;8.564;2024-03-29T10:26:15;0.60;;;0.60;;
15230;SDS011;32569;51.762;8.564;2024-03-29T10:28:43;0.60;;;0.60;;
15230;SDS011;32569;51.762;8.564;2024-03-29T10:31:09;0.60;;;0.60;;
15230;SDS011;32569;51.762;8.564;2024-03-29T10:33:38;0.50;;;0.50;;
15230;SDS011;32569;51.762;8.564;2024-03-29T10:36:08;0.70;;;0.70;;
15230;SDS011;32569;51.762;8.564;2024-03-29T10:38:37;0.60;;;0.60;;
15230;SDS011;32569;51.762;8.564;2024-03-29T10:41:05;0.47;;;0.47;;
15230;SDS011;32569;51.762;8.564;2024-03-29T10:43:34;0.53;;;0.53;;
15230;SDS011;32569;51.762;8.564;2024-03-29T10:46:03;0.60;;;0.60;;
15230;SDS011;32569;51.762;8.564;2024-03-29T10:48:30;0.60;;;0.60;;
15230;SDS011;32569;51.762;8.564;2024-03-29T10:50:58;1.03;;;0.73;;
15230;SDS011;32569;51.762;8.564;2024-03-29T10:53:26;0.57;;;0.57;;
15230;SDS011;32569;51.762;8.564;2024-03-29T10:55:53;0.60;;;0.60;;
15230;SDS011;32569;51.762;8.564;2024-03-29T10:58:24;0.60;;;0.60;;
15230;SDS011;32569;51.762;8.564;2024-03-29T11:00:56;0.53;;;0.53;;
15230;SDS011;32569;51.762;8.564;2024-03-29T11:03:26;0.30;;;0.30;;
15230;SDS011;32569;51.762;8.564;2024-03-29T11:06:01;0.50;;;0.50;;
15230;SDS011;32569;51.762;8.564;2024-03-29T11:08:31;0.67;;;0.67;;
15230;SDS011;32569;51.762;8.564;2024-03-29T11:10:59;0.57;;;0.57;;
15230;SDS011;32569;51.762;8.564;2024-03-29T11:13:31;0.60;;;0.60;;
15230;SDS011;32569;51.762;8.564;2024-03-29T11:16:03;0.80;;;0.80;;
15230;SDS011;32569;51.762;8.564;2024-03-29T11:18:30;0.77;;;0.77;;
15230;SDS011;32569;51.762;8.564;2024-03-29T11:20:58;0.50;;;0.50;;
15230;SDS011;32569;51.762;8.564;2024-03-29T11:23:27;0.60;;;0.60;;
15230;SDS011;32569;51.762;8.564;2024-03-29T11:25:54;0.60;;;0.60;;
15230;SDS011;32569;51.762;8.564;2024-03-29T11:28:23;0.67;;;0.67;;
15230;SDS011;32569;51.762;8.564;2024-03-29T11:30:56;0.53;;;0.53;;
15230;SDS011;32569;51.762;8.564;2024-03-29T11:33:27;0.40;;;0.40;;
15230;SDS011;32569;51.762;8.564;2024-03-29T11:35:55;0.60;;;0.60;;
15230;SDS011;32569;51.762;8.564;2024-03-29T11:38:30;0.50;;;0.50;;
15230;SDS011;32569;51.762;8.564;2024-03-29T11:41:02;0.40;;;0.40;;
15230;SDS011;32569;51.762;8.564;2024-03-29T11:43:30;0.70;;;0.70;;
15230;SDS011;32569;51.762;8.564;2024-03-29T11:46:00;0.50;;;0.50;;
15230;SDS011;32569;51.762;8.564;2024-03-29T11:48:28;0.53;;;0.53;;
15230;SDS011;32569;51.762;8.564;2024-03-29T11:50:56;0.60;;;0.60;;
15230;SDS011;32569;51.762;8.564;2024-03-29T11:53:24;0.50;;;0.50;;
15230;SDS011;32569;51.762;8.564;2024-03-29T11:55:52;0.60;;;0.60;;
15230;SDS011;32569;51.762;8.564;2024-03-29T11:58:20;0.60;;;0.60;;
15230;SDS011;32569;51.762;8.564;2024-03-29T12:00:48;0.50;;;0.50;;
15230;SDS011;32569;51.762;8.564;2024-03-29T12:03:17;0.50;;;0.50;;
15230;SDS011;32569;51.762;8.564;2024-03-29T12:05:45;0.40;;;0.40;;
15230;SDS011;32569;51.762;8.564;2024-03-29T12:08:13;0.60;;;0.60;;
15230;SDS011;32569;51.762;8.564;2024-03-29T12:10:41;0.60;;;0.60;;
15230;SDS011;32569;51.762;8.564;2024-03-29T12:13:08;0.60;;;0.60;;
15230;SDS011;32569;51.762;8.564;2024-03-29T12:15:36;0.53;;;0.53;;
15230;SDS011;32569;51.762;8.564;2024-03-29T12:18:03;0.70;;;0.70;;
15230;SDS011;32569;51.762;8.564;2024-03-29T12:20:32;0.60;;;0.60;;
15230;SDS011;32569;51.762;8.564;2024-03-29T12:23:00;0.60;;;0.60;;
15230;SDS011;32569;51.762;8.564;2024-03-29T12:25:27;0.60;;;0.60;;
15230;SDS011;32569;51.762;8.564;2024-03-29T12:27:57;0.60;;;0.60;;
15230;SDS011;32569;51.762;8.564;2024-03-29T12:30:24;0.83;;;0.50;;
15230;SDS011;32569;51.762;8.564;2024-03-29T12:32:59;0.70;;;0.70;;
15230;SDS011;32569;51.762;8.564;2024-03-29T12:35:27;0.60;;;0.60;;
15230;SDS011;32569;51.762;8.564;2024-03-29T12:37:57;0.70;;;0.70;;
15230;SDS011;32569;51.762;8.564;2024-03-29T12:40:25;0.70;;;0.70;;
15230;SDS011;32569;51.762;8.564;2024-03-29T12:42:53;0.40;;;0.40;;
15230;SDS011;32569;51.762;8.564;2024-03-29T12:45:21;0.50;;;0.50;;
15230;SDS011;32569;51.762;8.564;2024-03-29T12:47:51;0.60;;;0.60;;
15230;SDS011;32569;51.762;8.564;2024-03-29T12:50:19;0.60;;;0.60;;
15230;SDS011;32569;51.762;8.564;2024-03-29T12:52:50;0.70;;;0.70;;
15230;SDS011;32569;51.762;8.564;2024-03-29T12:55:21;0.50;;;0.50;;
15230;SDS011;32569;51.762;8.564;2024-03-29T12:57:48;0.70;;;0.70;;
15230;SDS011;32569;51.762;8.564;2024-03-29T13:00:15;0.47;;;0.47;;
15230;SDS011;32569;51.762;8.564;2024-03-29T13:02:42;0.50;;;0.50;;
15230;SDS011;32569;51.762;8.564;2024-03-29T13:05:11;1.43;;;1.43;;
15230;SDS011;32569;51.762;8.564;2024-03-29T13:07:38;0.70;;;0.70;;
15230;SDS011;32569;51.762;8.564;2024-03-29T13:10:07;0.60;;;0.60;;
15230;SDS011;32569;51.762;8.564;2024-03-29T13:12:39;0.50;;;0.50;;
15230;SDS011;32569;51.762;8.564;2024-03-29T13:15:14;0.80;;;0.80;;
15230;SDS011;32569;51.762;8.564;2024-03-29T13:17:46;0.70;;;0.70;;
15230;SDS011;32569;51.762;8.564;2024-03-29T13:20:14;0.60;;;0.60;;
15230;SDS011;32569;51.762;8.564;2024-03-29T13:22:41;0.90;;;0.90;;
15230;SDS011;32569;51.762;8.564;2024-03-29T13:25:10;0.70;;;0.70;;
15230;SDS011;32569;51.762;8.564;2024-03-29T13:27:38;0.50;;;0.50;;
15230;SDS011;32569;51.762;8.564;2024-03-29T13:30:07;0.50;;;0.50;;
15230;SDS011;32569;51.762;8.564;2024-03-29T13:32:35;0.57;;;0.57;;
15230;SDS011;32569;51.762;8.564;2024-03-29T13:35:02;0.57;;;0.57;;
15230;SDS011;32569;51.762;8.564;2024-03-29T13:37:31;0.53;;;0.53;;
15230;SDS011;32569;51.762;8.564;2024-03-29T13:39:58;0.50;;;0.50;;
15230;SDS011;32569;51.762;8.564;2024-03-29T13:42:26;0.40;;;0.40;;
15230;SDS011;32569;51.762;8.564;2024-03-29T13:44:54;0.60;;;0.60;;
15230;SDS011;32569;51.762;8.564;2024-03-29T13:47:21;0.60;;;0.60;;
15230;SDS011;32569;51.762;8.564;2024-03-29T13:49:48;0.50;;;0.50;;
15230;SDS011;32569;51.762;8.564;2024-03-29T13:52:18;0.47;;;0.47;;
15230;SDS011;32569;51.762;8.564;2024-03-29T13:54:44;0.40;;;0.40;;
15230;SDS011;32569;51.762;8.564;2024-03-29T13:57:12;0.60;;;0.60;;
15230;SDS011;32569;51.762;8.564;2024-03-29T13:59:38;0.50;;;0.50;;
15230;SDS011;32569;51.762;8.564;2024-03-29T14:02:09;0.67;;;0.67;;
15230;SDS011;32569;51.762;8.564;2024-03-29T14:04:37;0.70;;;0.70;;
15230;SDS011;32569;51.762;8.564;2024-03-29T14:07:04;0.60;;;0.60;;
15230;SDS011;32569;51.762;8.564;2024-03-29T14:09:32;0.50;;;0.50;;
15230;SDS011;32569;51.762;8.564;2024-03-29T14:11:59;0.50;;;0.50;;
15230;SDS011;32569;51.762;8.564;2024-03-29T14:14:27;0.60;;;0.60;;
15230;SDS011;32569;51.762;8.564;2024-03-29T14:16:53;0.43;;;0.43;;
15230;SDS011;32569;51.762;8.564;2024-03-29T14:19:21;0.53;;;0.53;;
15230;SDS011;32569;51.762;8.564;2024-03-29T14:21:49;0.60;;;0.60;;
15230;SDS011;32569;51.762;8.564;2024-03-29T14:24:15;0.63;;;0.63;;
15230;SDS011;32569;51.762;8.564;2024-03-29T14:26:42;0.60;;;0.60;;
15230;SDS011;32569;51.762;8.564;2024-03-29T14:29:09;0.47;;;0.47;;
15230;SDS011;32569;51.762;8.564;2024-03-29T14:31:36;0.40;;;0.40;;
15230;SDS011;32569;51.762;8.564;2024-03-29T14:34:03;0.40;;;0.40;;
15230;SDS011;32569;51.762;8.564;2024-03-29T14:36:31;0.40;;;0.40;;
15230;SDS011;32569;51.762;8.564;2024-03-29T14:38:58;0.40;;;0.40;;
15230;SDS011;32569;51.762;8.564;2024-03-29T14:41:26;0.60;;;0.60;;
15230;SDS011;32569;51.762;8.564;2024-03-29T14:43:52;0.40;;;0.40;;
15230;SDS011;32569;51.762;8.564;2024-03-29T14:46:21;0.50;;;0.50;;
15230;SDS011;32569;51.762;8.564;2024-03-29T14:48:51;0.70;;;0.70;;
15230;SDS011;32569;51.762;8.564;2024-03-29T14:51:20;0.60;;;0.60;;